Time;durP1;ratioP1;P1;durP2;ratioP2;P2;SDS_P1;SDS_P2;PMS_P1;PMS_P2;Temp;Humidity;BMP_temperature;BMP_pressure;BME280_temperature;BME280_humidity;BME280_pressure;Samples;Min_cycle;Max_cycle;Signal;HPM_P1;HPM_P2
2022/09/16 00:00:42;;;;;;;6.18;1.48;;;11.60;99.90;;;;;;5038635;28;20055;-50
2022/09/16 00:03:09;;;;;;;7.13;1.08;;;11.60;99.90;;;;;;5038698;28;20048;-48
2022/09/16 00:05:42;;;;;;;5.80;0.98;;;11.60;99.90;;;;;;5032291;28;20053;-49
2022/09/16 00:08:08;;;;;;;6.25;1.00;;;11.60;99.90;;;;;;5018623;28;20542;-48
2022/09/16 00:10:35;;;;;;;8.63;1.05;;;11.60;99.90;;;;;;5026281;28;20051;-49
2022/09/16 00:13:00;;;;;;;4.85;0.90;;;11.60;99.90;;;;;;5031821;28;20136;-47
2022/09/16 00:15:26;;;;;;;5.90;1.65;;;11.60;99.90;;;;;;5030704;28;20482;-48
2022/09/16 00:17:53;;;;;;;7.10;2.08;;;11.60;99.90;;;;;;5032631;28;20443;-48
2022/09/16 00:20:19;;;;;;;4.70;1.00;;;11.60;99.90;;;;;;5021070;28;20051;-48
2022/09/16 00:22:44;;;;;;;3.42;0.85;;;11.50;99.90;;;;;;5029710;28;20045;-47
2022/09/16 00:25:10;;;;;;;7.00;1.05;;;11.50;99.90;;;;;;5030114;28;20123;-49
2022/09/16 00:27:36;;;;;;;3.67;0.80;;;11.50;99.90;;;;;;5028996;28;20442;-47
2022/09/16 00:30:03;;;;;;;2.75;0.80;;;11.50;99.90;;;;;;5040595;28;20078;-48
2022/09/16 00:32:29;;;;;;;7.13;1.45;;;11.50;99.90;;;;;;5023628;28;20056;-49
2022/09/16 00:34:55;;;;;;;5.20;0.98;;;11.50;99.90;;;;;;5042570;28;20045;-49
2022/09/16 00:37:23;;;;;;;6.78;0.90;;;11.50;99.90;;;;;;5036562;28;20045;-48
2022/09/16 00:39:49;;;;;;;5.18;0.93;;;11.40;99.90;;;;;;5022380;28;20385;-48
2022/09/16 00:42:16;;;;;;;3.58;1.13;;;11.40;99.90;;;;;;5041018;28;20091;-50
2022/09/16 00:44:48;;;;;;;3.90;0.90;;;11.40;99.90;;;;;;5030438;28;20124;-47
2022/09/16 00:47:19;;;;;;;10.38;1.58;;;11.40;99.90;;;;;;5023527;28;20053;-47
2022/09/16 00:49:45;;;;;;;5.68;1.38;;;11.40;99.90;;;;;;5026330;28;20140;-51
2022/09/16 00:52:12;;;;;;;7.40;1.35;;;11.40;99.90;;;;;;5042855;28;20052;-52
2022/09/16 00:54:41;;;;;;;7.80;1.50;;;11.40;99.90;;;;;;5030723;28;20128;-52
2022/09/16 00:57:09;;;;;;;5.15;1.13;;;11.50;99.90;;;;;;5032888;28;20056;-52
2022/09/16 00:59:42;;;;;;;5.88;1.85;;;11.50;99.90;;;;;;5030009;28;20053;-49
2022/09/16 01:02:16;;;;;;;5.15;1.33;;;11.40;99.90;;;;;;5023106;28;20053;-51
2022/09/16 01:04:54;;;;;;;7.10;1.42;;;11.50;99.90;;;;;;5037721;28;20046;-47
2022/09/16 01:07:30;;;;;;;5.95;0.82;;;11.50;99.90;;;;;;5038961;28;20044;-49
2022/09/16 01:09:56;;;;;;;5.75;1.05;;;11.40;99.90;;;;;;5030632;28;20045;-48
2022/09/16 01:12:22;;;;;;;3.60;1.15;;;11.40;99.90;;;;;;5028292;28;20506;-47
2022/09/16 01:14:54;;;;;;;6.35;1.35;;;11.30;99.90;;;;;;5024134;28;20056;-48
2022/09/16 01:17:53;;;;;;;6.13;1.30;;;11.30;99.90;;;;;;5033998;28;20083;-48
2022/09/16 01:20:45;;;;;;;8.25;1.52;;;11.30;99.90;;;;;;5038513;28;20045;-48
2022/09/16 01:23:40;;;;;;;6.72;1.40;;;11.30;99.90;;;;;;5031384;28;20044;-48
2022/09/16 01:26:15;;;;;;;5.10;1.08;;;11.30;99.90;;;;;;5029652;28;20405;-51
2022/09/16 01:29:13;;;;;;;8.15;1.65;;;11.30;99.90;;;;;;5038969;28;20612;-47
2022/09/16 01:31:45;;;;;;;7.13;1.42;;;11.30;99.90;;;;;;5011751;28;20107;-47
2022/09/16 01:34:33;;;;;;;5.65;1.20;;;11.30;99.90;;;;;;5024213;28;20050;-49
2022/09/16 01:37:17;;;;;;;8.18;1.40;;;11.30;99.90;;;;;;5039640;28;20044;-49
2022/09/16 01:40:01;;;;;;;6.80;1.70;;;11.30;99.90;;;;;;5022272;28;20048;-48
2022/09/16 01:42:35;;;;;;;5.70;1.10;;;11.20;99.90;;;;;;5021194;28;20049;-48
2022/09/16 01:45:28;;;;;;;6.10;1.45;;;11.20;99.90;;;;;;5024210;28;20526;-47
2022/09/16 01:48:12;;;;;;;4.25;1.20;;;11.20;99.90;;;;;;5022892;28;20057;-47
2022/09/16 01:50:49;;;;;;;5.90;1.38;;;11.20;99.90;;;;;;5032225;28;20051;-49
2022/09/16 01:53:26;;;;;;;9.52;1.83;;;11.10;99.90;;;;;;5007100;28;20440;-49
2022/09/16 01:56:09;;;;;;;6.00;1.10;;;11.10;99.90;;;;;;5022159;28;20057;-47
2022/09/16 01:58:59;;;;;;;4.10;1.20;;;11.00;99.90;;;;;;5034492;28;20056;-49
2022/09/16 02:01:38;;;;;;;4.63;1.10;;;10.90;99.90;;;;;;5020251;28;20746;-49
2022/09/16 02:04:12;;;;;;;9.43;1.50;;;10.90;99.90;;;;;;5028335;28;20042;-48
2022/09/16 02:06:44;;;;;;;7.70;1.63;;;10.80;99.90;;;;;;5029815;28;20041;-48
2022/09/16 02:09:18;;;;;;;5.72;1.17;;;10.70;99.90;;;;;;5011187;28;20061;-53
2022/09/16 02:11:49;;;;;;;9.52;1.63;;;10.70;99.90;;;;;;5029441;28;20064;-53
2022/09/16 02:14:22;;;;;;;5.53;1.30;;;10.70;99.90;;;;;;5019447;28;20491;-48
2022/09/16 02:16:59;;;;;;;5.53;1.50;;;10.60;99.90;;;;;;5023654;28;20057;-48
2022/09/16 02:19:35;;;;;;;6.65;1.55;;;10.60;99.90;;;;;;5031458;28;20549;-49
2022/09/16 02:22:26;;;;;;;8.05;1.75;;;10.60;99.90;;;;;;5028301;28;20056;-49
2022/09/16 02:24:52;;;;;;;8.23;1.98;;;10.60;99.90;;;;;;5028217;28;20080;-47
2022/09/16 02:27:20;;;;;;;9.88;1.80;;;10.70;99.90;;;;;;5033446;28;20492;-47
2022/09/16 02:29:51;;;;;;;4.65;1.20;;;10.70;99.90;;;;;;5010485;28;20046;-48
2022/09/16 02:32:19;;;;;;;7.88;1.40;;;10.70;99.90;;;;;;5037906;28;20129;-47
2022/09/16 02:34:49;;;;;;;6.28;1.15;;;10.70;99.90;;;;;;5044317;28;20084;-53
2022/09/16 02:37:31;;;;;;;5.53;1.17;;;10.80;99.90;;;;;;5031227;28;20045;-49
2022/09/16 02:40:04;;;;;;;10.43;1.85;;;10.80;99.90;;;;;;5031495;28;20045;-47
2022/09/16 02:42:30;;;;;;;6.88;1.35;;;10.70;99.90;;;;;;5015576;28;20059;-48
2022/09/16 02:44:57;;;;;;;3.95;1.20;;;10.70;99.90;;;;;;5015223;28;20056;-47
2022/09/16 02:47:35;;;;;;;6.60;1.30;;;10.60;99.90;;;;;;5027344;28;20046;-47
2022/09/16 02:50:13;;;;;;;7.40;1.60;;;10.60;99.90;;;;;;5031613;28;20114;-47
2022/09/16 02:53:14;;;;;;;7.90;0.93;;;10.50;99.90;;;;;;5028656;28;20084;-49
2022/09/16 02:55:55;;;;;;;5.07;1.15;;;10.50;99.90;;;;;;5025718;28;20084;-49
2022/09/16 02:58:21;;;;;;;7.88;1.20;;;10.40;99.90;;;;;;5029461;28;20056;-50
2022/09/16 03:00:50;;;;;;;6.85;1.27;;;10.30;99.90;;;;;;5039273;28;20040;-47
2022/09/16 03:03:17;;;;;;;5.80;1.10;;;10.20;99.90;;;;;;5020811;28;20065;-47
2022/09/16 03:06:04;;;;;;;5.93;1.35;;;10.20;99.90;;;;;;5015271;28;20128;-48
2022/09/16 03:08:31;;;;;;;8.50;1.20;;;10.30;99.90;;;;;;5031406;28;20084;-47
2022/09/16 03:11:03;;;;;;;10.10;1.48;;;10.40;99.90;;;;;;5033991;28;20044;-48
2022/09/16 03:13:53;;;;;;;9.15;1.30;;;10.30;99.90;;;;;;5017492;28;20132;-49
2022/09/16 03:16:32;;;;;;;7.55;1.50;;;10.40;99.90;;;;;;5031348;28;20048;-50
2022/09/16 03:19:49;;;;;;;9.02;1.45;;;10.40;99.90;;;;;;5036913;28;20059;-48
2022/09/16 03:22:36;;;;;;;6.82;1.13;;;10.40;99.90;;;;;;4954135;28;20051;-48
2022/09/16 03:25:44;;;;;;;10.70;1.85;;;10.50;99.90;;;;;;4930843;28;20162;-50
2022/09/16 03:28:40;;;;;;;8.23;1.42;;;10.40;99.90;;;;;;4942106;28;20130;-47
2022/09/16 03:31:10;;;;;;;7.93;1.67;;;10.30;99.90;;;;;;4905953;29;20598;-48
2022/09/16 03:33:45;;;;;;;7.38;1.30;;;10.30;99.90;;;;;;4899503;29;20071;-48
2022/09/16 03:36:15;;;;;;;6.22;2.13;;;10.20;99.90;;;;;;4914219;29;20102;-49
2022/09/16 03:38:41;;;;;;;5.18;1.10;;;10.10;99.90;;;;;;4918622;29;20095;-49
2022/09/16 03:41:08;;;;;;;5.72;1.30;;;10.10;99.90;;;;;;4915647;29;20059;-48
2022/09/16 03:43:34;;;;;;;8.05;1.25;;;10.00;99.90;;;;;;4921891;29;20071;-48
2022/09/16 03:46:00;;;;;;;8.27;1.50;;;10.00;99.90;;;;;;4913611;29;20059;-46
2022/09/16 03:48:26;;;;;;;7.93;1.50;;;9.90;99.90;;;;;;4910785;29;20052;-48
2022/09/16 03:50:55;;;;;;;9.50;1.40;;;9.90;99.90;;;;;;4913197;29;20677;-47
2022/09/16 03:53:20;;;;;;;5.82;1.15;;;9.80;99.90;;;;;;4917468;29;20649;-47
2022/09/16 03:55:48;;;;;;;6.97;1.40;;;9.80;99.90;;;;;;4915879;29;20060;-47
2022/09/16 03:58:14;;;;;;;4.68;1.00;;;9.70;99.90;;;;;;4951571;28;20054;-47
2022/09/16 04:00:41;;;;;;;8.75;1.60;;;9.70;99.90;;;;;;4997458;28;20115;-48
2022/09/16 04:03:07;;;;;;;5.30;1.20;;;9.60;99.90;;;;;;4980717;28;20496;-47
2022/09/16 04:05:32;;;;;;;6.63;1.10;;;9.70;99.90;;;;;;4979979;28;20043;-49
2022/09/16 04:07:58;;;;;;;6.32;1.30;;;9.60;99.90;;;;;;5018918;28;20060;-48
2022/09/16 04:10:24;;;;;;;11.27;1.38;;;9.60;99.90;;;;;;5041965;28;20041;-52
2022/09/16 04:12:50;;;;;;;6.47;1.70;;;9.60;99.90;;;;;;5027684;28;20518;-49
2022/09/16 04:15:16;;;;;;;4.03;1.17;;;9.50;99.90;;;;;;5024328;28;20103;-49
2022/09/16 04:17:41;;;;;;;7.82;1.60;;;9.40;99.90;;;;;;5026472;28;20053;-46
2022/09/16 04:20:08;;;;;;;8.43;1.40;;;9.40;99.90;;;;;;5026679;28;20511;-47
2022/09/16 04:22:33;;;;;;;12.88;1.52;;;9.40;99.90;;;;;;5041494;28;20045;-47
2022/09/16 04:24:59;;;;;;;7.70;1.40;;;9.40;99.90;;;;;;5029556;28;20037;-48
2022/09/16 04:27:24;;;;;;;6.75;1.17;;;9.30;99.90;;;;;;5023949;28;20391;-47
2022/09/16 04:29:50;;;;;;;8.15;1.40;;;9.30;99.90;;;;;;5014540;28;20053;-51
2022/09/16 04:32:16;;;;;;;7.60;1.45;;;9.30;99.90;;;;;;5020512;28;20094;-48
2022/09/16 04:34:42;;;;;;;5.78;1.33;;;9.20;99.90;;;;;;5031765;28;20115;-48
2022/09/16 04:37:07;;;;;;;7.63;1.23;;;9.20;99.90;;;;;;5026423;28;20096;-48
2022/09/16 04:39:33;;;;;;;9.00;1.50;;;9.20;99.90;;;;;;5025060;28;20044;-51
2022/09/16 04:41:59;;;;;;;8.10;1.45;;;9.20;99.90;;;;;;5022939;28;20785;-54
2022/09/16 04:44:26;;;;;;;10.65;2.15;;;9.10;99.90;;;;;;5022244;28;20141;-49
2022/09/16 04:46:51;;;;;;;6.63;1.90;;;9.00;99.90;;;;;;5038603;28;20157;-47
2022/09/16 04:49:17;;;;;;;8.57;1.98;;;9.00;99.90;;;;;;5018355;28;20563;-48
2022/09/16 04:51:43;;;;;;;13.45;1.90;;;9.00;99.90;;;;;;5027097;28;20262;-47
2022/09/16 04:54:11;;;;;;;7.05;1.42;;;8.90;99.90;;;;;;5021055;28;20053;-52
2022/09/16 04:56:37;;;;;;;10.00;2.08;;;8.90;99.90;;;;;;5024877;28;20581;-46
2022/09/16 04:59:04;;;;;;;14.25;2.05;;;8.90;99.90;;;;;;5029452;28;20105;-47
2022/09/16 05:01:33;;;;;;;8.35;1.85;;;8.90;99.90;;;;;;5032725;28;20053;-47
2022/09/16 05:04:04;;;;;;;5.68;1.88;;;8.80;99.90;;;;;;5008108;28;20050;-46
2022/09/16 05:06:32;;;;;;;9.85;2.97;;;8.80;99.90;;;;;;5025897;28;20140;-46
2022/09/16 05:09:01;;;;;;;11.13;2.35;;;8.80;99.90;;;;;;5006406;28;20045;-46
2022/09/16 05:11:30;;;;;;;8.82;1.90;;;8.80;99.90;;;;;;5005229;28;20135;-47
2022/09/16 05:14:00;;;;;;;7.95;2.03;;;8.80;99.90;;;;;;5026105;28;20207;-47
2022/09/16 05:16:26;;;;;;;11.13;2.08;;;8.80;99.90;;;;;;5023758;28;20124;-46
2022/09/16 05:18:55;;;;;;;11.02;2.15;;;8.80;99.90;;;;;;5032176;28;20053;-46
2022/09/16 05:21:22;;;;;;;10.05;1.95;;;8.90;99.90;;;;;;5026031;28;20052;-47
2022/09/16 05:23:49;;;;;;;10.95;2.03;;;8.80;99.90;;;;;;5030149;28;20102;-46
2022/09/16 05:26:30;;;;;;;5.53;1.73;;;8.90;99.90;;;;;;5024598;28;20072;-49
2022/09/16 05:28:59;;;;;;;11.23;2.30;;;9.00;99.90;;;;;;5026822;28;20049;-47
2022/09/16 05:31:27;;;;;;;8.73;2.05;;;9.00;99.90;;;;;;5040673;28;20465;-46
2022/09/16 05:34:05;;;;;;;8.60;2.05;;;9.00;99.90;;;;;;5030552;28;20122;-46
2022/09/16 05:36:33;;;;;;;10.57;2.30;;;9.10;99.90;;;;;;5042353;28;20080;-47
2022/09/16 05:39:00;;;;;;;9.88;2.50;;;9.20;99.90;;;;;;5036285;28;20049;-47
2022/09/16 05:41:26;;;;;;;15.88;2.50;;;9.20;99.90;;;;;;5021665;28;20056;-49
2022/09/16 05:43:53;;;;;;;11.07;2.13;;;9.20;99.90;;;;;;5041276;28;20612;-46
2022/09/16 05:46:21;;;;;;;11.00;2.17;;;9.30;99.90;;;;;;5041243;28;20542;-46
2022/09/16 05:48:47;;;;;;;7.22;1.95;;;9.40;99.90;;;;;;5040537;28;20056;-49
2022/09/16 05:51:15;;;;;;;13.10;2.22;;;9.50;99.90;;;;;;5041123;28;20076;-49
2022/09/16 05:53:42;;;;;;;10.00;2.28;;;9.50;99.90;;;;;;5044945;28;20045;-48
2022/09/16 05:56:14;;;;;;;9.32;1.85;;;9.60;99.90;;;;;;5044352;28;20132;-48
2022/09/16 05:58:40;;;;;;;10.53;2.17;;;9.60;99.90;;;;;;5028847;28;20049;-51
2022/09/16 06:01:09;;;;;;;14.35;2.55;;;9.70;99.90;;;;;;5019816;28;20386;-47
2022/09/16 06:03:37;;;;;;;12.20;2.20;;;10.10;99.90;;;;;;5020322;28;20134;-48
2022/09/16 06:06:33;;;;;;;9.00;1.83;;;10.60;99.90;;;;;;5007597;28;20265;-46
2022/09/16 06:09:20;;;;;;;12.70;2.45;;;10.90;99.90;;;;;;5042145;28;20523;-48
2022/09/16 06:11:49;;;;;;;21.70;2.63;;;11.40;99.90;;;;;;5029817;28;20045;-52
2022/09/16 06:14:16;;;;;;;8.40;1.67;;;12.30;99.90;;;;;;5017631;28;20122;-46
2022/09/16 06:16:42;;;;;;;10.32;2.17;;;13.20;99.90;;;;;;5044824;28;20579;-48
2022/09/16 06:19:11;;;;;;;11.70;2.47;;;14.10;99.90;;;;;;5043942;28;20053;-46
2022/09/16 06:21:38;;;;;;;13.18;1.80;;;14.90;99.90;;;;;;5044134;28;20135;-49
2022/09/16 06:24:07;;;;;;;11.40;2.45;;;15.60;99.90;;;;;;5044000;28;20041;-52
2022/09/16 06:26:35;;;;;;;8.60;1.98;;;16.20;99.90;;;;;;5044420;28;20087;-49
2022/09/16 06:29:00;;;;;;;9.75;2.20;;;16.70;99.90;;;;;;5027502;28;20462;-47
2022/09/16 06:31:27;;;;;;;13.40;2.03;;;17.10;99.90;;;;;;5025936;28;20049;-48
2022/09/16 06:33:54;;;;;;;15.77;2.58;;;17.80;99.90;;;;;;5033471;28;20408;-47
2022/09/16 06:36:22;;;;;;;11.20;2.95;;;18.20;99.90;;;;;;5044292;28;20060;-48
2022/09/16 06:38:48;;;;;;;7.07;2.15;;;18.70;99.90;;;;;;5043739;28;20049;-47
2022/09/16 06:41:16;;;;;;;8.93;2.83;;;19.10;99.90;;;;;;5025781;28;20380;-48
2022/09/16 06:43:43;;;;;;;14.13;2.45;;;19.50;99.90;;;;;;5036470;28;20103;-48
2022/09/16 06:46:17;;;;;;;13.18;2.42;;;19.50;99.90;;;;;;5037417;28;20070;-48
2022/09/16 06:48:49;;;;;;;11.25;2.42;;;19.10;99.90;;;;;;5026318;28;20053;-47
2022/09/16 06:51:23;;;;;;;9.18;1.63;;;18.40;99.90;;;;;;5026082;28;20534;-51
2022/09/16 06:53:50;;;;;;;9.63;2.22;;;17.80;99.90;;;;;;5034971;28;20134;-47
2022/09/16 06:56:18;;;;;;;9.30;2.03;;;17.30;99.90;;;;;;5029634;28;20475;-47
2022/09/16 06:58:48;;;;;;;8.15;1.83;;;17.30;99.90;;;;;;5030007;28;20080;-51
2022/09/16 07:01:19;;;;;;;8.00;1.85;;;17.30;99.90;;;;;;5041790;28;20080;-50
2022/09/16 07:03:47;;;;;;;10.32;1.65;;;17.30;99.90;;;;;;5038912;28;20053;-47
2022/09/16 07:06:16;;;;;;;10.30;1.75;;;17.40;99.90;;;;;;5040812;28;20454;-48
2022/09/16 07:08:42;;;;;;;8.57;2.20;;;17.40;99.90;;;;;;5012525;28;20041;-48
2022/09/16 07:11:14;;;;;;;7.30;2.17;;;17.50;99.90;;;;;;5042316;28;20072;-47
2022/09/16 07:13:40;;;;;;;12.57;2.45;;;17.40;99.90;;;;;;5016244;28;20099;-47
2022/09/16 07:16:11;;;;;;;8.32;2.00;;;17.40;99.90;;;;;;5040438;28;20068;-47
2022/09/16 07:18:37;;;;;;;7.43;1.73;;;17.50;99.90;;;;;;5041283;28;20214;-47
2022/09/16 07:21:06;;;;;;;7.53;2.00;;;17.50;99.90;;;;;;5018169;28;20057;-47
2022/09/16 07:23:33;;;;;;;5.45;1.77;;;17.60;99.90;;;;;;5035760;28;20049;-53
2022/09/16 07:26:13;;;;;;;12.75;2.55;;;17.50;99.90;;;;;;5013295;28;20096;-49
2022/09/16 07:28:40;;;;;;;8.82;2.45;;;17.60;99.90;;;;;;5007393;28;20046;-47
2022/09/16 07:31:10;;;;;;;7.00;2.15;;;17.60;99.90;;;;;;5024556;28;20048;-48
2022/09/16 07:33:39;;;;;;;7.85;1.80;;;17.60;99.90;;;;;;5023710;28;20762;-49
2022/09/16 07:36:06;;;;;;;10.77;2.58;;;17.60;99.90;;;;;;5041949;28;20052;-48
2022/09/16 07:38:33;;;;;;;10.38;2.40;;;17.60;99.90;;;;;;5040490;28;20057;-48
2022/09/16 07:41:07;;;;;;;8.63;1.92;;;17.70;99.90;;;;;;5033955;28;20045;-48
2022/09/16 07:43:37;;;;;;;17.05;2.20;;;17.80;99.90;;;;;;5043413;28;20128;-48
2022/09/16 07:46:03;;;;;;;6.05;2.00;;;17.70;99.90;;;;;;5034134;28;20046;-48
2022/09/16 07:48:31;;;;;;;13.93;2.88;;;17.80;99.90;;;;;;5033246;28;20107;-50
2022/09/16 07:50:59;;;;;;;8.75;1.77;;;17.70;99.90;;;;;;5027745;28;20490;-48
2022/09/16 07:53:28;;;;;;;10.77;2.05;;;17.30;99.90;;;;;;5021173;28;20403;-49
2022/09/16 07:55:55;;;;;;;8.93;2.10;;;17.30;99.90;;;;;;5033817;28;20404;-48
2022/09/16 07:58:21;;;;;;;14.48;2.78;;;17.30;99.90;;;;;;5022607;28;20115;-50
2022/09/16 08:00:48;;;;;;;14.32;2.90;;;17.40;99.90;;;;;;5039345;28;20576;-49
2022/09/16 08:03:16;;;;;;;7.40;2.00;;;17.70;99.90;;;;;;5042772;28;20053;-48
2022/09/16 08:05:41;;;;;;;10.45;2.30;;;18.00;99.90;;;;;;5034284;28;20392;-50
2022/09/16 08:08:07;;;;;;;8.35;2.60;;;18.10;99.90;;;;;;5022974;28;20056;-48
2022/09/16 08:10:35;;;;;;;11.65;3.10;;;17.90;99.90;;;;;;5023213;28;20503;-51
2022/09/16 08:13:02;;;;;;;11.50;3.20;;;17.50;99.90;;;;;;5040216;28;20399;-48
2022/09/16 08:15:28;;;;;;;12.82;2.72;;;17.00;99.90;;;;;;5042575;28;20472;-49
2022/09/16 08:17:53;;;;;;;12.13;3.05;;;16.70;99.90;;;;;;5039990;28;20058;-48
2022/09/16 08:20:19;;;;;;;14.27;2.75;;;16.20;99.90;;;;;;5037090;28;20049;-49
2022/09/16 08:22:48;;;;;;;16.25;3.40;;;16.20;99.90;;;;;;5033245;28;20052;-50
2022/09/16 08:25:14;;;;;;;11.32;2.55;;;16.40;99.90;;;;;;5032774;28;20037;-53
2022/09/16 08:27:40;;;;;;;11.65;2.80;;;16.50;99.90;;;;;;5035407;28;20044;-48
2022/09/16 08:30:06;;;;;;;9.30;2.55;;;16.50;99.90;;;;;;5019930;28;20041;-53
2022/09/16 08:32:32;;;;;;;15.10;3.00;;;16.60;99.90;;;;;;5033226;28;20045;-51
2022/09/16 08:34:57;;;;;;;10.20;2.88;;;16.60;99.90;;;;;;5022640;28;20095;-49
2022/09/16 08:37:23;;;;;;;11.77;2.40;;;16.70;99.90;;;;;;5004611;28;20099;-49
2022/09/16 08:39:50;;;;;;;10.25;2.30;;;16.70;99.90;;;;;;5027927;28;20040;-52
2022/09/16 08:42:40;;;;;;;11.32;3.10;;;16.80;99.90;;;;;;5038889;28;20056;-49
2022/09/16 08:45:47;;;;;;;13.10;2.78;;;16.70;99.90;;;;;;5039000;28;20052;-49
2022/09/16 08:48:37;;;;;;;8.55;2.47;;;16.90;99.90;;;;;;4966741;28;20054;-52
2022/09/16 08:51:07;;;;;;;9.60;2.60;;;17.10;99.90;;;;;;4970672;28;20459;-50
2022/09/16 08:53:53;;;;;;;10.88;2.50;;;17.30;99.90;;;;;;4963995;28;20090;-50
2022/09/16 08:56:21;;;;;;;9.55;2.08;;;17.40;99.20;;;;;;4960630;28;20050;-52
2022/09/16 08:58:52;;;;;;;8.25;2.30;;;17.40;97.70;;;;;;4969359;28;20054;-50
2022/09/16 09:01:39;;;;;;;11.63;2.20;;;17.40;98.30;;;;;;4960740;28;20054;-49
2022/09/16 09:04:07;;;;;;;10.85;2.40;;;17.60;97.90;;;;;;4968786;28;20054;-50
2022/09/16 09:06:51;;;;;;;14.43;2.67;;;17.60;97.90;;;;;;4948567;28;20058;-50
2022/09/16 09:09:41;;;;;;;7.65;2.08;;;17.80;98.60;;;;;;4977821;28;20061;-52
2022/09/16 09:12:37;;;;;;;9.15;2.70;;;17.80;99.20;;;;;;4954908;28;20144;-52
2022/09/16 09:15:21;;;;;;;11.65;2.53;;;17.70;98.60;;;;;;4962139;28;20102;-50
2022/09/16 09:18:17;;;;;;;10.18;2.30;;;17.60;98.80;;;;;;4973604;28;20109;-50
2022/09/16 09:21:13;;;;;;;14.52;2.90;;;17.70;98.80;;;;;;4949308;28;20498;-50
2022/09/16 09:23:54;;;;;;;12.13;2.40;;;17.80;99.40;;;;;;5012001;28;20107;-51
2022/09/16 09:26:42;;;;;;;12.20;2.50;;;17.80;98.80;;;;;;5019880;28;20057;-52
2022/09/16 09:29:46;;;;;;;12.43;2.13;;;17.90;99.20;;;;;;4998410;28;20067;-50
2022/09/16 09:32:33;;;;;;;11.95;2.45;;;17.60;97.00;;;;;;4962417;28;20644;-51
2022/09/16 09:35:22;;;;;;;10.63;2.30;;;17.80;97.40;;;;;;4939426;28;20059;-50
2022/09/16 09:38:31;;;;;;;10.73;2.42;;;17.80;96.70;;;;;;4887762;29;20078;-49
2022/09/16 09:41:17;;;;;;;7.72;2.28;;;18.00;97.10;;;;;;4889376;29;20112;-51
2022/09/16 09:43:53;;;;;;;8.43;2.13;;;17.80;96.10;;;;;;4829320;29;20240;-52
2022/09/16 09:46:28;;;;;;;9.10;1.90;;;17.80;97.20;;;;;;4832677;29;20058;-52
2022/09/16 09:49:26;;;;;;;12.63;2.75;;;17.80;98.00;;;;;;4832762;29;20553;-54
2022/09/16 09:52:10;;;;;;;9.00;2.40;;;17.90;97.50;;;;;;4777461;29;20094;-51
2022/09/16 09:54:37;;;;;;;9.68;2.30;;;18.10;98.10;;;;;;4776430;29;20063;-56
2022/09/16 09:57:08;;;;;;;13.20;2.65;;;18.20;97.40;;;;;;4778036;29;20136;-50
2022/09/16 10:00:12;;;;;;;16.45;2.65;;;18.10;98.00;;;;;;4774445;29;20058;-51
2022/09/16 10:02:41;;;;;;;;;;;17.90;98.60;;;;;;4754730;30;20054;-54
2022/09/16 10:05:24;;;;;;;10.80;2.05;;;17.50;98.30;;;;;;4767753;29;19970;-49
2022/09/16 10:07:52;;;;;;;9.32;2.30;;;17.20;98.40;;;;;;4815860;29;20065;-50
2022/09/16 10:10:23;;;;;;;8.52;2.10;;;17.20;99.30;;;;;;4847657;29;20061;-50
2022/09/16 10:12:49;;;;;;;12.50;2.67;;;17.40;98.70;;;;;;4844965;29;20454;-54
2022/09/16 10:15:30;;;;;;;8.70;2.95;;;17.50;99.40;;;;;;4841931;29;20573;-54
2022/09/16 10:18:00;;;;;;;13.80;2.25;;;17.30;99.90;;;;;;4868052;29;20095;-51
2022/09/16 10:20:34;;;;;;;12.23;2.33;;;17.00;99.70;;;;;;4897294;28;20058;-51
2022/09/16 10:23:01;;;;;;;12.52;2.63;;;16.80;99.70;;;;;;4962513;28;20059;-51
2022/09/16 10:25:30;;;;;;;12.80;2.42;;;16.90;99.90;;;;;;4962387;28;20086;-51
2022/09/16 10:28:00;;;;;;;9.75;2.03;;;17.10;99.90;;;;;;4972136;28;20353;-51
2022/09/16 10:30:33;;;;;;;9.98;2.42;;;17.40;99.60;;;;;;5022923;28;20041;-51
2022/09/16 10:33:12;;;;;;;7.50;1.90;;;17.30;98.50;;;;;;5018065;28;20053;-52
2022/09/16 10:35:41;;;;;;;8.40;2.25;;;17.20;98.30;;;;;;5019535;28;20390;-48
2022/09/16 10:39:02;;;;;;;9.95;2.60;;;17.20;98.40;;;;;;5008464;28;20045;-52
2022/09/16 10:41:39;;;;;;;8.45;2.40;;;17.30;98.50;;;;;;4972894;28;20071;-50
2022/09/16 10:46:59;;;;;;;6.30;1.95;;;17.60;98.30;;;;;;5036748;28;20687;-51
2022/09/16 10:49:38;;;;;;;9.93;1.73;;;17.70;97.10;;;;;;5040162;28;20083;-51
2022/09/16 10:52:13;;;;;;;12.77;2.33;;;17.70;96.80;;;;;;5036523;28;20521;-50
2022/09/16 10:54:38;;;;;;;10.32;2.03;;;17.80;97.00;;;;;;5030093;28;20045;-49
2022/09/16 10:57:40;;;;;;;8.18;1.75;;;18.00;97.70;;;;;;5040595;28;20047;-52
2022/09/16 11:00:13;;;;;;;8.93;2.00;;;17.80;96.70;;;;;;5042530;28;20094;-52
2022/09/16 11:03:04;;;;;;;13.10;2.00;;;17.70;97.30;;;;;;5042527;28;20064;-53
2022/09/16 11:05:40;;;;;;;9.80;2.53;;;17.80;97.40;;;;;;5009195;28;20061;-51
2022/09/16 11:08:54;;;;;;;8.40;1.92;;;17.80;96.50;;;;;;5021940;28;20128;-54
2022/09/16 11:11:36;;;;;;;6.45;2.47;;;18.10;96.90;;;;;;5032026;28;20041;-50
2022/09/16 11:14:41;;;;;;;9.45;1.65;;;18.20;96.70;;;;;;5041923;28;20500;-51
2022/09/16 11:17:35;;;;;;;9.70;1.88;;;17.80;96.60;;;;;;5037130;28;20045;-53
2022/09/16 11:20:33;;;;;;;8.85;2.33;;;17.90;96.90;;;;;;5035678;28;20364;-53
2022/09/16 11:23:15;;;;;;;8.45;2.22;;;17.80;96.70;;;;;;5033602;28;20042;-53
2022/09/16 11:26:06;;;;;;;11.70;1.90;;;17.80;97.20;;;;;;5023342;28;20064;-50
2022/09/16 11:29:12;;;;;;;8.20;1.85;;;18.00;97.80;;;;;;5032650;28;20102;-51
2022/09/16 11:31:43;;;;;;;7.63;1.73;;;18.10;97.20;;;;;;5033028;28;20057;-50
2022/09/16 11:34:12;;;;;;;8.35;1.70;;;18.10;97.00;;;;;;5034535;28;20045;-50
2022/09/16 11:36:44;;;;;;;9.73;2.10;;;18.20;97.00;;;;;;5033626;28;20173;-52
2022/09/16 11:39:18;;;;;;;7.47;1.80;;;18.20;96.20;;;;;;5036924;28;20159;-53
2022/09/16 11:42:10;;;;;;;10.10;1.98;;;18.40;97.20;;;;;;4998783;28;20502;-54
2022/09/16 11:44:55;;;;;;;9.52;2.20;;;18.60;97.40;;;;;;5042261;28;20067;-53
2022/09/16 11:47:24;;;;;;;6.43;2.03;;;18.30;99.90;;;;;;5015833;28;20095;-50
2022/09/16 11:50:01;;;;;;;9.38;1.92;;;17.30;99.90;;;;;;5021552;28;20629;-52
2022/09/16 11:53:04;;;;;;;10.23;2.28;;;16.90;99.90;;;;;;5023471;28;20057;-52
2022/09/16 11:55:36;;;;;;;10.32;2.75;;;16.70;99.90;;;;;;5034163;28;20049;-50
2022/09/16 11:58:21;;;;;;;7.07;2.00;;;16.70;99.90;;;;;;5033531;28;20535;-51
2022/09/16 12:00:49;;;;;;;12.50;2.20;;;16.60;99.90;;;;;;5038291;28;20496;-52
2022/09/16 12:03:34;;;;;;;8.07;2.15;;;16.70;99.90;;;;;;5042544;28;20052;-50
2022/09/16 12:06:10;;;;;;;12.27;2.95;;;16.80;99.90;;;;;;5038863;28;20609;-52
2022/09/16 12:08:53;;;;;;;10.73;2.63;;;16.90;99.90;;;;;;5040738;28;20049;-54
2022/09/16 12:11:21;;;;;;;12.10;2.78;;;17.10;99.90;;;;;;5017459;28;20057;-51
2022/09/16 12:13:56;;;;;;;9.00;2.47;;;17.30;99.80;;;;;;5021683;28;20589;-50
2022/09/16 12:16:37;;;;;;;16.45;2.78;;;17.60;99.70;;;;;;5039305;28;20399;-53
2022/09/16 12:19:11;;;;;;;9.98;2.63;;;17.80;99.90;;;;;;5022387;28;20480;-50
2022/09/16 12:21:48;;;;;;;9.77;2.42;;;17.80;99.90;;;;;;5039636;28;20462;-50
2022/09/16 12:24:29;;;;;;;9.57;2.00;;;17.60;99.80;;;;;;5114649;27;20398;-52
2022/09/16 12:27:14;;;;;;;;;;;17.40;99.90;;;;;;5099772;28;20052;-52
2022/09/16 12:30:10;;;;;;;18.02;2.70;;;17.30;99.90;;;;;;5080216;28;19924;-51
2022/09/16 12:32:55;;;;;;;9.02;2.50;;;17.30;99.90;;;;;;5089806;28;20040;-51
2022/09/16 12:35:32;;;;;;;11.88;3.10;;;17.10;99.90;;;;;;5097647;28;20051;-52
2022/09/16 12:37:58;;;;;;;11.52;2.80;;;17.20;99.90;;;;;;5094998;28;20063;-50
2022/09/16 12:40:44;;;;;;;11.48;2.95;;;17.10;99.90;;;;;;5099532;28;20046;-51
2022/09/16 12:43:25;;;;;;;10.00;2.80;;;17.30;99.90;;;;;;5097455;28;20059;-54
2022/09/16 12:46:14;;;;;;;11.25;2.63;;;17.60;99.90;;;;;;5081824;28;20069;-57
2022/09/16 12:49:01;;;;;;;22.05;2.78;;;18.00;99.90;;;;;;5091607;28;20044;-53
2022/09/16 12:52:12;;;;;;;15.27;2.92;;;18.20;98.60;;;;;;5092508;28;20047;-52
2022/09/16 12:54:52;;;;;;;18.83;3.55;;;18.30;97.80;;;;;;4975455;28;20761;-52
2022/09/16 12:57:38;;;;;;;15.95;3.30;;;18.10;98.50;;;;;;4992785;28;20081;-50
2022/09/16 13:00:27;;;;;;;14.75;3.25;;;18.00;98.50;;;;;;4987091;28;20571;-53
2022/09/16 13:02:58;;;;;;;15.50;3.10;;;17.90;99.60;;;;;;4992022;28;20513;-54
2022/09/16 13:05:35;;;;;;;18.70;3.30;;;17.80;98.90;;;;;;4976171;28;20063;-51
2022/09/16 13:08:24;;;;;;;12.05;3.33;;;17.80;99.00;;;;;;4986996;28;20122;-50
2022/09/16 13:11:07;;;;;;;15.60;2.88;;;17.50;98.70;;;;;;4981154;28;20500;-51
2022/09/16 13:13:45;;;;;;;13.10;3.70;;;17.40;99.60;;;;;;4985922;28;20430;-52
2022/09/16 13:16:11;;;;;;;16.50;3.90;;;17.40;99.50;;;;;;4989330;28;20382;-52
2022/09/16 13:18:39;;;;;;;12.10;3.22;;;17.50;99.30;;;;;;4992780;28;20436;-51
2022/09/16 13:21:23;;;;;;;15.32;4.30;;;17.40;99.00;;;;;;4983944;28;20050;-51
2022/09/16 13:24:14;;;;;;;18.15;3.50;;;17.50;98.70;;;;;;4991554;28;20054;-50
2022/09/16 13:26:42;;;;;;;14.68;2.90;;;17.60;98.90;;;;;;4959164;28;20101;-49